sensor_id;sensor_type;location;lat;lon;timestamp;P1;durP1;ratioP1;P2;durP2;ratioP2
179;SDS011;78;48.788;9.010;2024-01-11T00:00:06;72.23;;;24.63;;
179;SDS011;78;48.788;9.010;2024-01-11T00:02:32;68.83;;;23.43;;
179;SDS011;78;48.788;9.010;2024-01-11T00:04:58;63.17;;;22.23;;
179;SDS011;78;48.788;9.010;2024-01-11T00:07:24;65.40;;;23.50;;
179;SDS011;78;48.788;9.010;2024-01-11T00:09:50;71.10;;;23.60;;
179;SDS011;78;48.788;9.010;2024-01-11T00:12:16;64.77;;;22.97;;
179;SDS011;78;48.788;9.010;2024-01-11T00:14:42;70.43;;;24.20;;
179;SDS011;78;48.788;9.010;2024-01-11T00:17:09;69.07;;;24.20;;
179;SDS011;78;48.788;9.010;2024-01-11T00:19:35;63.50;;;23.60;;
179;SDS011;78;48.788;9.010;2024-01-11T00:22:01;62.90;;;23.10;;
179;SDS011;78;48.788;9.010;2024-01-11T00:24:27;72.63;;;23.27;;
179;SDS011;78;48.788;9.010;2024-01-11T00:26:54;68.20;;;24.30;;
179;SDS011;78;48.788;9.010;2024-01-11T00:29:20;69.20;;;23.97;;
179;SDS011;78;48.788;9.010;2024-01-11T00:31:46;67.40;;;22.43;;
179;SDS011;78;48.788;9.010;2024-01-11T00:34:13;65.53;;;23.50;;
179;SDS011;78;48.788;9.010;2024-01-11T00:36:39;69.20;;;23.60;;
179;SDS011;78;48.788;9.010;2024-01-11T00:39:05;67.57;;;23.20;;
179;SDS011;78;48.788;9.010;2024-01-11T00:41:32;64.17;;;22.03;;
179;SDS011;78;48.788;9.010;2024-01-11T00:43:58;65.10;;;23.00;;
179;SDS011;78;48.788;9.010;2024-01-11T00:46:24;69.57;;;24.93;;
179;SDS011;78;48.788;9.010;2024-01-11T00:48:50;66.10;;;23.20;;
179;SDS011;78;48.788;9.010;2024-01-11T00:51:17;75.97;;;23.17;;
179;SDS011;78;48.788;9.010;2024-01-11T00:53:43;62.70;;;22.00;;
179;SDS011;78;48.788;9.010;2024-01-11T00:56:16;74.20;;;23.37;;
179;SDS011;78;48.788;9.010;2024-01-11T00:58:42;70.73;;;23.00;;
179;SDS011;78;48.788;9.010;2024-01-11T01:01:11;69.60;;;23.30;;
179;SDS011;78;48.788;9.010;2024-01-11T01:03:37;66.20;;;21.60;;
179;SDS011;78;48.788;9.010;2024-01-11T01:06:04;63.60;;;21.90;;
179;SDS011;78;48.788;9.010;2024-01-11T01:08:30;68.63;;;23.23;;
179;SDS011;78;48.788;9.010;2024-01-11T01:10:56;69.13;;;23.53;;
179;SDS011;78;48.788;9.010;2024-01-11T01:13:22;68.40;;;22.97;;
179;SDS011;78;48.788;9.010;2024-01-11T01:15:48;65.93;;;22.27;;
179;SDS011;78;48.788;9.010;2024-01-11T01:18:15;62.03;;;22.30;;
179;SDS011;78;48.788;9.010;2024-01-11T01:20:41;61.33;;;22.70;;
179;SDS011;78;48.788;9.010;2024-01-11T01:23:08;73.97;;;24.63;;
179;SDS011;78;48.788;9.010;2024-01-11T01:25:35;70.77;;;22.90;;
179;SDS011;78;48.788;9.010;2024-01-11T01:28:01;70.30;;;23.60;;
179;SDS011;78;48.788;9.010;2024-01-11T01:30:27;71.93;;;23.20;;
179;SDS011;78;48.788;9.010;2024-01-11T01:32:53;67.37;;;23.30;;
179;SDS011;78;48.788;9.010;2024-01-11T01:35:20;64.83;;;22.67;;
179;SDS011;78;48.788;9.010;2024-01-11T01:37:46;68.20;;;24.47;;
179;SDS011;78;48.788;9.010;2024-01-11T01:40:12;70.93;;;23.10;;
179;SDS011;78;48.788;9.010;2024-01-11T01:42:44;69.60;;;23.60;;
179;SDS011;78;48.788;9.010;2024-01-11T01:45:11;68.50;;;23.10;;
179;SDS011;78;48.788;9.010;2024-01-11T01:47:40;68.60;;;23.93;;
179;SDS011;78;48.788;9.010;2024-01-11T01:50:08;63.03;;;22.70;;
179;SDS011;78;48.788;9.010;2024-01-11T01:52:35;68.33;;;23.83;;
179;SDS011;78;48.788;9.010;2024-01-11T01:55:02;66.13;;;24.73;;
179;SDS011;78;48.788;9.010;2024-01-11T01:57:29;66.53;;;22.80;;
179;SDS011;78;48.788;9.010;2024-01-11T01:59:56;71.23;;;23.00;;
179;SDS011;78;48.788;9.010;2024-01-11T02:02:22;73.33;;;23.23;;
179;SDS011;78;48.788;9.010;2024-01-11T02:04:48;65.70;;;23.13;;
179;SDS011;78;48.788;9.010;2024-01-11T02:07:15;82.03;;;25.50;;
179;SDS011;78;48.788;9.010;2024-01-11T02:09:41;72.70;;;24.30;;
179;SDS011;78;48.788;9.010;2024-01-11T02:12:08;75.70;;;25.07;;
179;SDS011;78;48.788;9.010;2024-01-11T02:14:38;79.70;;;25.43;;
179;SDS011;78;48.788;9.010;2024-01-11T02:17:05;68.63;;;25.10;;
179;SDS011;78;48.788;9.010;2024-01-11T02:19:31;72.10;;;25.13;;
179;SDS011;78;48.788;9.010;2024-01-11T02:22:03;66.23;;;22.90;;
179;SDS011;78;48.788;9.010;2024-01-11T02:24:32;93.60;;;28.10;;
179;SDS011;78;48.788;9.010;2024-01-11T02:27:02;72.27;;;23.37;;
179;SDS011;78;48.788;9.010;2024-01-11T02:29:29;80.67;;;26.43;;
179;SDS011;78;48.788;9.010;2024-01-11T02:31:55;72.37;;;23.97;;
179;SDS011;78;48.788;9.010;2024-01-11T02:34:25;73.20;;;23.50;;
179;SDS011;78;48.788;9.010;2024-01-11T02:36:52;69.57;;;24.87;;
179;SDS011;78;48.788;9.010;2024-01-11T02:39:19;63.47;;;22.90;;
179;SDS011;78;48.788;9.010;2024-01-11T02:41:46;69.00;;;24.40;;
179;SDS011;78;48.788;9.010;2024-01-11T02:44:13;71.00;;;24.00;;
179;SDS011;78;48.788;9.010;2024-01-11T02:46:39;70.77;;;23.47;;
179;SDS011;78;48.788;9.010;2024-01-11T02:49:06;69.63;;;24.37;;
179;SDS011;78;48.788;9.010;2024-01-11T02:51:32;66.70;;;22.77;;
179;SDS011;78;48.788;9.010;2024-01-11T02:53:59;67.73;;;21.80;;
179;SDS011;78;48.788;9.010;2024-01-11T02:56:25;73.80;;;24.13;;
179;SDS011;78;48.788;9.010;2024-01-11T02:58:51;70.27;;;24.40;;
179;SDS011;78;48.788;9.010;2024-01-11T03:01:18;73.93;;;25.10;;
179;SDS011;78;48.788;9.010;2024-01-11T03:03:44;75.10;;;23.43;;
179;SDS011;78;48.788;9.010;2024-01-11T03:06:10;67.83;;;23.53;;
179;SDS011;78;48.788;9.010;2024-01-11T03:08:37;67.77;;;23.67;;
179;SDS011;78;48.788;9.010;2024-01-11T03:11:03;59.67;;;22.70;;
179;SDS011;78;48.788;9.010;2024-01-11T03:13:30;68.73;;;23.90;;
179;SDS011;78;48.788;9.010;2024-01-11T03:15:56;75.43;;;23.90;;
179;SDS011;78;48.788;9.010;2024-01-11T03:18:23;70.77;;;24.03;;
179;SDS011;78;48.788;9.010;2024-01-11T03:20:49;68.70;;;22.87;;
179;SDS011;78;48.788;9.010;2024-01-11T03:23:15;74.13;;;23.90;;
179;SDS011;78;48.788;9.010;2024-01-11T03:25:42;68.53;;;24.40;;
179;SDS011;78;48.788;9.010;2024-01-11T03:28:08;84.67;;;25.13;;
179;SDS011;78;48.788;9.010;2024-01-11T03:30:34;80.03;;;24.77;;
179;SDS011;78;48.788;9.010;2024-01-11T03:33:00;64.40;;;23.43;;
179;SDS011;78;48.788;9.010;2024-01-11T03:35:26;66.83;;;22.90;;
179;SDS011;78;48.788;9.010;2024-01-11T03:37:53;68.10;;;23.93;;
179;SDS011;78;48.788;9.010;2024-01-11T03:40:19;70.43;;;22.90;;
179;SDS011;78;48.788;9.010;2024-01-11T03:42:46;71.57;;;22.87;;
179;SDS011;78;48.788;9.010;2024-01-11T03:45:12;72.20;;;24.23;;
179;SDS011;78;48.788;9.010;2024-01-11T03:47:38;63.87;;;21.60;;
179;SDS011;78;48.788;9.010;2024-01-11T03:50:05;64.93;;;22.83;;
179;SDS011;78;48.788;9.010;2024-01-11T03:52:31;83.67;;;24.93;;
179;SDS011;78;48.788;9.010;2024-01-11T03:54:58;64.50;;;23.07;;
179;SDS011;78;48.788;9.010;2024-01-11T03:57:24;69.80;;;24.00;;
179;SDS011;78;48.788;9.010;2024-01-11T03:59:51;85.83;;;23.97;;
179;SDS011;78;48.788;9.010;2024-01-11T04:02:17;66.27;;;23.40;;
179;SDS011;78;48.788;9.010;2024-01-11T04:04:44;73.03;;;23.27;;
179;SDS011;78;48.788;9.010;2024-01-11T04:07:10;66.43;;;23.40;;
179;SDS011;78;48.788;9.010;2024-01-11T04:09:39;77.43;;;25.10;;
179;SDS011;78;48.788;9.010;2024-01-11T04:12:06;84.90;;;23.03;;
179;SDS011;78;48.788;9.010;2024-01-11T04:14:32;69.37;;;23.80;;
179;SDS011;78;48.788;9.010;2024-01-11T04:16:59;65.63;;;22.23;;
179;SDS011;78;48.788;9.010;2024-01-11T04:19:25;74.63;;;24.00;;
179;SDS011;78;48.788;9.010;2024-01-11T04:21:51;77.10;;;24.47;;
179;SDS011;78;48.788;9.010;2024-01-11T04:24:18;70.63;;;23.70;;
179;SDS011;78;48.788;9.010;2024-01-11T04:26:43;73.37;;;24.53;;
179;SDS011;78;48.788;9.010;2024-01-11T04:29:10;71.43;;;24.87;;
179;SDS011;78;48.788;9.010;2024-01-11T04:31:36;85.83;;;24.23;;
179;SDS011;78;48.788;9.010;2024-01-11T04:34:02;71.03;;;24.17;;
179;SDS011;78;48.788;9.010;2024-01-11T04:36:29;70.40;;;22.87;;
179;SDS011;78;48.788;9.010;2024-01-11T04:38:55;66.40;;;22.40;;
179;SDS011;78;48.788;9.010;2024-01-11T04:41:21;70.27;;;24.17;;
179;SDS011;78;48.788;9.010;2024-01-11T04:43:47;69.90;;;23.30;;
179;SDS011;78;48.788;9.010;2024-01-11T04:48:43;69.40;;;23.63;;
179;SDS011;78;48.788;9.010;2024-01-11T04:51:10;65.67;;;23.33;;
179;SDS011;78;48.788;9.010;2024-01-11T04:53:39;72.83;;;24.17;;
179;SDS011;78;48.788;9.010;2024-01-11T04:56:06;73.73;;;24.13;;
179;SDS011;78;48.788;9.010;2024-01-11T04:58:33;64.93;;;22.93;;
179;SDS011;78;48.788;9.010;2024-01-11T05:01:00;72.67;;;24.07;;
179;SDS011;78;48.788;9.010;2024-01-11T05:03:27;68.67;;;23.80;;
179;SDS011;78;48.788;9.010;2024-01-11T05:05:53;70.87;;;24.87;;
179;SDS011;78;48.788;9.010;2024-01-11T05:08:19;74.17;;;23.07;;
179;SDS011;78;48.788;9.010;2024-01-11T05:10:45;80.93;;;25.67;;
179;SDS011;78;48.788;9.010;2024-01-11T05:13:11;72.70;;;25.37;;
179;SDS011;78;48.788;9.010;2024-01-11T05:15:37;70.00;;;24.43;;
179;SDS011;78;48.788;9.010;2024-01-11T05:18:04;82.30;;;25.13;;
179;SDS011;78;48.788;9.010;2024-01-11T05:20:30;74.13;;;24.63;;
179;SDS011;78;48.788;9.010;2024-01-11T05:22:57;77.50;;;23.97;;
179;SDS011;78;48.788;9.010;2024-01-11T05:25:23;72.60;;;24.37;;
179;SDS011;78;48.788;9.010;2024-01-11T05:27:49;67.17;;;24.10;;
179;SDS011;78;48.788;9.010;2024-01-11T05:30:15;68.27;;;24.20;;
179;SDS011;78;48.788;9.010;2024-01-11T05:32:41;75.70;;;24.13;;
179;SDS011;78;48.788;9.010;2024-01-11T05:35:07;74.00;;;24.90;;
179;SDS011;78;48.788;9.010;2024-01-11T05:37:35;78.43;;;22.80;;
179;SDS011;78;48.788;9.010;2024-01-11T05:40:02;72.67;;;25.43;;
179;SDS011;78;48.788;9.010;2024-01-11T05:42:28;76.03;;;24.03;;
179;SDS011;78;48.788;9.010;2024-01-11T05:44:54;95.43;;;26.33;;
179;SDS011;78;48.788;9.010;2024-01-11T05:47:20;74.70;;;24.73;;
179;SDS011;78;48.788;9.010;2024-01-11T05:49:47;69.90;;;23.90;;
179;SDS011;78;48.788;9.010;2024-01-11T05:52:13;82.53;;;25.37;;
179;SDS011;78;48.788;9.010;2024-01-11T05:54:39;76.03;;;25.10;;
179;SDS011;78;48.788;9.010;2024-01-11T05:57:06;73.03;;;25.03;;
179;SDS011;78;48.788;9.010;2024-01-11T05:59:32;74.97;;;25.23;;
179;SDS011;78;48.788;9.010;2024-01-11T06:01:59;73.10;;;24.20;;
179;SDS011;78;48.788;9.010;2024-01-11T06:04:26;92.93;;;26.60;;
179;SDS011;78;48.788;9.010;2024-01-11T06:06:53;78.27;;;25.83;;
179;SDS011;78;48.788;9.010;2024-01-11T06:09:19;78.63;;;26.60;;
179;SDS011;78;48.788;9.010;2024-01-11T06:11:45;74.40;;;26.03;;
179;SDS011;78;48.788;9.010;2024-01-11T06:14:11;86.00;;;27.33;;
179;SDS011;78;48.788;9.010;2024-01-11T06:16:37;76.40;;;25.43;;
179;SDS011;78;48.788;9.010;2024-01-11T06:19:04;72.83;;;25.37;;
179;SDS011;78;48.788;9.010;2024-01-11T06:21:32;77.23;;;25.30;;
179;SDS011;78;48.788;9.010;2024-01-11T06:23:58;82.80;;;26.93;;
179;SDS011;78;48.788;9.010;2024-01-11T06:26:24;78.03;;;24.63;;
179;SDS011;78;48.788;9.010;2024-01-11T06:28:50;76.93;;;26.17;;
179;SDS011;78;48.788;9.010;2024-01-11T06:31:16;77.43;;;25.60;;
179;SDS011;78;48.788;9.010;2024-01-11T06:33:43;77.37;;;26.20;;
179;SDS011;78;48.788;9.010;2024-01-11T06:36:09;73.67;;;24.93;;
179;SDS011;78;48.788;9.010;2024-01-11T06:38:35;75.00;;;25.80;;
179;SDS011;78;48.788;9.010;2024-01-11T06:41:01;78.00;;;24.70;;
179;SDS011;78;48.788;9.010;2024-01-11T06:43:27;80.33;;;26.03;;
179;SDS011;78;48.788;9.010;2024-01-11T06:45:53;76.50;;;24.83;;
179;SDS011;78;48.788;9.010;2024-01-11T06:48:19;75.30;;;25.30;;
179;SDS011;78;48.788;9.010;2024-01-11T06:50:45;82.90;;;26.90;;
179;SDS011;78;48.788;9.010;2024-01-11T06:53:11;80.63;;;25.67;;
179;SDS011;78;48.788;9.010;2024-01-11T06:55:37;86.50;;;26.43;;
179;SDS011;78;48.788;9.010;2024-01-11T06:58:06;78.87;;;25.13;;
179;SDS011;78;48.788;9.010;2024-01-11T07:00:31;78.60;;;26.57;;
179;SDS011;78;48.788;9.010;2024-01-11T07:02:57;78.73;;;25.87;;
179;SDS011;78;48.788;9.010;2024-01-11T07:05:23;84.10;;;25.43;;
179;SDS011;78;48.788;9.010;2024-01-11T07:07:49;81.13;;;25.00;;
179;SDS011;78;48.788;9.010;2024-01-11T07:10:15;77.37;;;27.20;;
179;SDS011;78;48.788;9.010;2024-01-11T07:12:42;74.43;;;24.70;;
179;SDS011;78;48.788;9.010;2024-01-11T07:15:10;76.40;;;25.33;;
179;SDS011;78;48.788;9.010;2024-01-11T07:17:37;74.87;;;25.53;;
179;SDS011;78;48.788;9.010;2024-01-11T07:20:03;75.93;;;26.70;;
179;SDS011;78;48.788;9.010;2024-01-11T07:22:29;71.90;;;24.30;;
179;SDS011;78;48.788;9.010;2024-01-11T07:24:56;73.73;;;25.10;;
179;SDS011;78;48.788;9.010;2024-01-11T07:27:22;80.47;;;27.17;;
179;SDS011;78;48.788;9.010;2024-01-11T07:29:47;79.03;;;25.70;;
179;SDS011;78;48.788;9.010;2024-01-11T07:32:13;85.23;;;25.37;;
179;SDS011;78;48.788;9.010;2024-01-11T07:34:39;70.47;;;22.87;;
179;SDS011;78;48.788;9.010;2024-01-11T07:37:05;71.20;;;24.20;;
179;SDS011;78;48.788;9.010;2024-01-11T07:39:32;82.40;;;25.40;;
179;SDS011;78;48.788;9.010;2024-01-11T07:41:59;70.23;;;24.97;;
179;SDS011;78;48.788;9.010;2024-01-11T07:44:25;80.10;;;27.37;;
179;SDS011;78;48.788;9.010;2024-01-11T07:46:51;84.03;;;27.10;;
179;SDS011;78;48.788;9.010;2024-01-11T07:49:17;93.97;;;27.67;;
179;SDS011;78;48.788;9.010;2024-01-11T07:51:43;78.07;;;26.63;;
179;SDS011;78;48.788;9.010;2024-01-11T07:54:09;89.87;;;28.03;;
179;SDS011;78;48.788;9.010;2024-01-11T07:56:34;76.30;;;26.67;;
179;SDS011;78;48.788;9.010;2024-01-11T07:59:00;76.47;;;26.80;;
179;SDS011;78;48.788;9.010;2024-01-11T08:01:26;95.47;;;28.90;;
179;SDS011;78;48.788;9.010;2024-01-11T08:03:52;84.37;;;28.63;;
179;SDS011;78;48.788;9.010;2024-01-11T08:06:18;89.83;;;26.70;;
179;SDS011;78;48.788;9.010;2024-01-11T08:08:44;85.90;;;29.70;;
179;SDS011;78;48.788;9.010;2024-01-11T08:11:16;79.33;;;28.60;;
179;SDS011;78;48.788;9.010;2024-01-11T08:13:42;83.90;;;29.17;;
179;SDS011;78;48.788;9.010;2024-01-11T08:16:08;77.00;;;27.13;;
179;SDS011;78;48.788;9.010;2024-01-11T08:18:36;82.77;;;25.87;;
179;SDS011;78;48.788;9.010;2024-01-11T08:21:02;93.60;;;29.80;;
179;SDS011;78;48.788;9.010;2024-01-11T08:23:34;80.73;;;28.10;;
179;SDS011;78;48.788;9.010;2024-01-11T08:26:00;90.03;;;28.70;;
179;SDS011;78;48.788;9.010;2024-01-11T08:28:26;87.73;;;29.57;;
179;SDS011;78;48.788;9.010;2024-01-11T08:30:52;87.97;;;28.60;;
179;SDS011;78;48.788;9.010;2024-01-11T08:33:18;81.70;;;27.97;;
179;SDS011;78;48.788;9.010;2024-01-11T08:35:44;84.93;;;30.10;;
179;SDS011;78;48.788;9.010;2024-01-11T08:38:10;90.87;;;31.17;;
179;SDS011;78;48.788;9.010;2024-01-11T08:40:36;84.43;;;30.70;;
179;SDS011;78;48.788;9.010;2024-01-11T08:43:03;79.37;;;28.17;;
179;SDS011;78;48.788;9.010;2024-01-11T08:45:29;91.10;;;29.93;;
179;SDS011;78;48.788;9.010;2024-01-11T08:47:56;90.23;;;31.87;;
179;SDS011;78;48.788;9.010;2024-01-11T08:50:22;93.30;;;32.33;;
179;SDS011;78;48.788;9.010;2024-01-11T08:52:49;94.77;;;32.10;;
179;SDS011;78;48.788;9.010;2024-01-11T08:55:15;102.80;;;35.33;;
179;SDS011;78;48.788;9.010;2024-01-11T08:57:41;93.40;;;33.50;;
179;SDS011;78;48.788;9.010;2024-01-11T09:00:07;112.80;;;34.20;;
179;SDS011;78;48.788;9.010;2024-01-11T09:02:33;92.37;;;33.30;;
179;SDS011;78;48.788;9.010;2024-01-11T09:05:00;96.87;;;33.80;;
179;SDS011;78;48.788;9.010;2024-01-11T09:07:26;95.03;;;34.17;;
179;SDS011;78;48.788;9.010;2024-01-11T09:09:52;121.43;;;35.63;;
179;SDS011;78;48.788;9.010;2024-01-11T09:12:19;115.80;;;38.60;;
179;SDS011;78;48.788;9.010;2024-01-11T09:14:45;106.67;;;36.67;;
179;SDS011;78;48.788;9.010;2024-01-11T09:17:11;97.47;;;33.93;;
179;SDS011;78;48.788;9.010;2024-01-11T09:19:37;111.77;;;37.23;;
179;SDS011;78;48.788;9.010;2024-01-11T09:22:04;111.30;;;38.07;;
179;SDS011;78;48.788;9.010;2024-01-11T09:24:30;111.97;;;37.73;;
179;SDS011;78;48.788;9.010;2024-01-11T09:26:57;105.67;;;36.80;;
179;SDS011;78;48.788;9.010;2024-01-11T09:29:23;119.20;;;39.90;;
179;SDS011;78;48.788;9.010;2024-01-11T09:31:49;118.23;;;38.70;;
179;SDS011;78;48.788;9.010;2024-01-11T09:34:15;116.57;;;39.30;;
179;SDS011;78;48.788;9.010;2024-01-11T09:36:41;106.43;;;37.10;;
179;SDS011;78;48.788;9.010;2024-01-11T09:39:07;108.23;;;38.70;;
179;SDS011;78;48.788;9.010;2024-01-11T09:41:34;128.50;;;41.87;;
179;SDS011;78;48.788;9.010;2024-01-11T09:44:01;211.83;;;60.13;;
179;SDS011;78;48.788;9.010;2024-01-11T09:46:29;126.53;;;44.30;;
179;SDS011;78;48.788;9.010;2024-01-11T09:48:55;110.47;;;40.30;;
179;SDS011;78;48.788;9.010;2024-01-11T09:51:23;126.97;;;43.27;;
179;SDS011;78;48.788;9.010;2024-01-11T09:53:49;127.30;;;43.30;;
179;SDS011;78;48.788;9.010;2024-01-11T09:56:16;121.97;;;40.97;;
179;SDS011;78;48.788;9.010;2024-01-11T09:58:45;116.47;;;39.63;;
179;SDS011;78;48.788;9.010;2024-01-11T10:01:15;103.97;;;39.17;;
179;SDS011;78;48.788;9.010;2024-01-11T10:03:41;106.80;;;37.30;;
179;SDS011;78;48.788;9.010;2024-01-11T10:06:08;118.90;;;41.50;;
179;SDS011;78;48.788;9.010;2024-01-11T10:08:34;107.83;;;38.87;;
179;SDS011;78;48.788;9.010;2024-01-11T10:11:00;107.73;;;38.40;;
179;SDS011;78;48.788;9.010;2024-01-11T10:13:28;115.47;;;39.37;;
179;SDS011;78;48.788;9.010;2024-01-11T10:16:07;111.77;;;39.13;;
179;SDS011;78;48.788;9.010;2024-01-11T10:18:33;118.13;;;39.73;;
179;SDS011;78;48.788;9.010;2024-01-11T10:20:59;102.37;;;38.20;;
179;SDS011;78;48.788;9.010;2024-01-11T10:23:25;101.07;;;37.87;;
179;SDS011;78;48.788;9.010;2024-01-11T10:25:53;108.70;;;39.70;;
179;SDS011;78;48.788;9.010;2024-01-11T10:28:20;105.37;;;39.50;;
179;SDS011;78;48.788;9.010;2024-01-11T10:30:46;107.13;;;38.57;;
179;SDS011;78;48.788;9.010;2024-01-11T10:33:13;108.13;;;39.90;;
179;SDS011;78;48.788;9.010;2024-01-11T10:35:39;117.53;;;41.83;;
179;SDS011;78;48.788;9.010;2024-01-11T10:38:06;107.13;;;40.20;;
179;SDS011;78;48.788;9.010;2024-01-11T10:40:35;128.23;;;42.10;;
179;SDS011;78;48.788;9.010;2024-01-11T10:43:01;116.10;;;41.50;;
179;SDS011;78;48.788;9.010;2024-01-11T10:45:28;113.80;;;42.63;;
179;SDS011;78;48.788;9.010;2024-01-11T10:48:01;118.47;;;44.20;;
179;SDS011;78;48.788;9.010;2024-01-11T10:50:38;111.90;;;39.90;;
179;SDS011;78;48.788;9.010;2024-01-11T10:53:24;113.27;;;40.70;;
179;SDS011;78;48.788;9.010;2024-01-11T10:55:52;110.80;;;40.13;;
179;SDS011;78;48.788;9.010;2024-01-11T10:58:19;121.57;;;42.23;;
179;SDS011;78;48.788;9.010;2024-01-11T11:00:46;112.60;;;39.90;;
179;SDS011;78;48.788;9.010;2024-01-11T11:03:13;128.00;;;42.50;;
179;SDS011;78;48.788;9.010;2024-01-11T11:05:40;119.60;;;41.70;;
179;SDS011;78;48.788;9.010;2024-01-11T11:08:07;135.40;;;44.30;;
179;SDS011;78;48.788;9.010;2024-01-11T11:10:34;119.70;;;42.40;;
179;SDS011;78;48.788;9.010;2024-01-11T11:13:00;124.60;;;42.67;;
179;SDS011;78;48.788;9.010;2024-01-11T11:15:27;118.60;;;42.00;;
179;SDS011;78;48.788;9.010;2024-01-11T11:17:53;115.90;;;42.00;;
179;SDS011;78;48.788;9.010;2024-01-11T11:20:19;122.23;;;43.67;;
179;SDS011;78;48.788;9.010;2024-01-11T11:23:02;138.40;;;47.83;;
179;SDS011;78;48.788;9.010;2024-01-11T11:25:30;110.07;;;40.87;;
179;SDS011;78;48.788;9.010;2024-01-11T11:27:56;122.37;;;44.50;;
179;SDS011;78;48.788;9.010;2024-01-11T11:30:22;117.30;;;42.87;;
179;SDS011;78;48.788;9.010;2024-01-11T11:32:48;115.13;;;42.50;;
179;SDS011;78;48.788;9.010;2024-01-11T11:35:14;121.97;;;43.00;;
179;SDS011;78;48.788;9.010;2024-01-11T11:37:40;116.03;;;43.40;;
179;SDS011;78;48.788;9.010;2024-01-11T11:40:08;116.87;;;42.03;;
179;SDS011;78;48.788;9.010;2024-01-11T11:42:35;117.77;;;44.67;;
179;SDS011;78;48.788;9.010;2024-01-11T11:45:02;114.67;;;42.50;;
179;SDS011;78;48.788;9.010;2024-01-11T11:47:35;116.80;;;42.60;;
179;SDS011;78;48.788;9.010;2024-01-11T11:50:08;108.43;;;40.20;;
179;SDS011;78;48.788;9.010;2024-01-11T11:52:36;115.47;;;44.03;;
179;SDS011;78;48.788;9.010;2024-01-11T11:55:02;122.20;;;44.40;;
179;SDS011;78;48.788;9.010;2024-01-11T11:57:28;112.50;;;43.30;;
179;SDS011;78;48.788;9.010;2024-01-11T11:59:57;117.97;;;43.63;;
179;SDS011;78;48.788;9.010;2024-01-11T12:02:24;120.23;;;42.70;;
179;SDS011;78;48.788;9.010;2024-01-11T12:04:50;118.30;;;41.20;;
179;SDS011;78;48.788;9.010;2024-01-11T12:07:16;120.40;;;43.63;;
179;SDS011;78;48.788;9.010;2024-01-11T12:09:42;119.70;;;43.27;;
179;SDS011;78;48.788;9.010;2024-01-11T12:12:09;116.80;;;41.27;;
179;SDS011;78;48.788;9.010;2024-01-11T12:14:35;127.67;;;45.00;;
179;SDS011;78;48.788;9.010;2024-01-11T12:17:01;119.27;;;44.43;;
179;SDS011;78;48.788;9.010;2024-01-11T12:19:27;116.90;;;43.23;;
179;SDS011;78;48.788;9.010;2024-01-11T12:21:54;129.07;;;44.17;;
179;SDS011;78;48.788;9.010;2024-01-11T12:24:20;128.60;;;44.50;;
179;SDS011;78;48.788;9.010;2024-01-11T12:26:49;126.50;;;44.87;;
179;SDS011;78;48.788;9.010;2024-01-11T12:29:18;134.70;;;45.30;;
179;SDS011;78;48.788;9.010;2024-01-11T12:31:44;128.20;;;45.53;;
179;SDS011;78;48.788;9.010;2024-01-11T12:34:13;112.60;;;43.20;;
179;SDS011;78;48.788;9.010;2024-01-11T12:36:40;126.70;;;43.10;;
179;SDS011;78;48.788;9.010;2024-01-11T12:39:06;119.63;;;43.73;;
179;SDS011;78;48.788;9.010;2024-01-11T12:41:34;124.80;;;44.33;;
179;SDS011;78;48.788;9.010;2024-01-11T12:44:00;118.50;;;45.10;;
179;SDS011;78;48.788;9.010;2024-01-11T12:46:26;131.00;;;47.17;;
179;SDS011;78;48.788;9.010;2024-01-11T12:48:53;133.50;;;47.23;;
179;SDS011;78;48.788;9.010;2024-01-11T12:51:19;128.57;;;45.37;;
179;SDS011;78;48.788;9.010;2024-01-11T12:53:46;133.97;;;45.10;;
179;SDS011;78;48.788;9.010;2024-01-11T12:56:13;125.87;;;44.17;;
179;SDS011;78;48.788;9.010;2024-01-11T12:58:40;129.03;;;46.87;;
179;SDS011;78;48.788;9.010;2024-01-11T13:01:06;132.13;;;46.20;;
179;SDS011;78;48.788;9.010;2024-01-11T13:03:33;130.83;;;44.07;;
179;SDS011;78;48.788;9.010;2024-01-11T13:06:01;111.40;;;42.63;;
179;SDS011;78;48.788;9.010;2024-01-11T13:08:27;120.83;;;44.30;;
179;SDS011;78;48.788;9.010;2024-01-11T13:10:54;126.00;;;46.30;;
179;SDS011;78;48.788;9.010;2024-01-11T13:13:20;126.70;;;46.37;;
179;SDS011;78;48.788;9.010;2024-01-11T13:15:46;130.63;;;46.00;;
179;SDS011;78;48.788;9.010;2024-01-11T13:18:12;121.53;;;45.13;;
179;SDS011;78;48.788;9.010;2024-01-11T13:20:39;139.50;;;45.07;;
179;SDS011;78;48.788;9.010;2024-01-11T13:25:38;133.63;;;44.67;;
179;SDS011;78;48.788;9.010;2024-01-11T13:28:04;142.53;;;46.37;;
179;SDS011;78;48.788;9.010;2024-01-11T13:30:31;124.63;;;45.23;;
179;SDS011;78;48.788;9.010;2024-01-11T13:32:57;114.40;;;43.40;;
179;SDS011;78;48.788;9.010;2024-01-11T13:35:23;143.27;;;43.00;;
179;SDS011;78;48.788;9.010;2024-01-11T13:37:50;143.70;;;46.20;;
179;SDS011;78;48.788;9.010;2024-01-11T13:40:16;118.73;;;45.40;;
179;SDS011;78;48.788;9.010;2024-01-11T13:42:42;114.20;;;43.10;;
179;SDS011;78;48.788;9.010;2024-01-11T13:45:08;121.53;;;44.80;;
179;SDS011;78;48.788;9.010;2024-01-11T13:47:37;124.30;;;46.17;;
179;SDS011;78;48.788;9.010;2024-01-11T13:50:03;119.03;;;45.10;;
179;SDS011;78;48.788;9.010;2024-01-11T13:52:29;124.13;;;46.10;;
179;SDS011;78;48.788;9.010;2024-01-11T13:54:55;129.53;;;44.00;;
179;SDS011;78;48.788;9.010;2024-01-11T13:57:21;117.93;;;44.70;;
179;SDS011;78;48.788;9.010;2024-01-11T13:59:47;118.93;;;43.67;;
179;SDS011;78;48.788;9.010;2024-01-11T14:02:14;119.57;;;42.10;;
179;SDS011;78;48.788;9.010;2024-01-11T14:04:40;118.07;;;44.77;;
179;SDS011;78;48.788;9.010;2024-01-11T14:07:06;131.83;;;44.03;;
179;SDS011;78;48.788;9.010;2024-01-11T14:09:32;126.40;;;44.47;;
179;SDS011;78;48.788;9.010;2024-01-11T14:11:58;122.50;;;44.33;;
179;SDS011;78;48.788;9.010;2024-01-11T14:14:24;123.80;;;43.90;;
179;SDS011;78;48.788;9.010;2024-01-11T14:16:50;111.87;;;43.40;;
179;SDS011;78;48.788;9.010;2024-01-11T14:19:17;122.50;;;44.43;;
179;SDS011;78;48.788;9.010;2024-01-11T14:21:43;114.87;;;44.10;;
179;SDS011;78;48.788;9.010;2024-01-11T14:24:09;129.50;;;44.53;;
179;SDS011;78;48.788;9.010;2024-01-11T14:26:35;125.00;;;44.00;;
179;SDS011;78;48.788;9.010;2024-01-11T14:29:02;128.70;;;44.93;;
179;SDS011;78;48.788;9.010;2024-01-11T14:31:28;126.57;;;44.80;;
179;SDS011;78;48.788;9.010;2024-01-11T14:33:54;124.33;;;44.30;;
179;SDS011;78;48.788;9.010;2024-01-11T14:36:20;124.10;;;44.53;;
179;SDS011;78;48.788;9.010;2024-01-11T14:38:46;115.70;;;43.30;;
179;SDS011;78;48.788;9.010;2024-01-11T14:41:13;130.43;;;45.77;;
179;SDS011;78;48.788;9.010;2024-01-11T14:43:39;134.47;;;46.63;;
179;SDS011;78;48.788;9.010;2024-01-11T14:46:05;121.30;;;45.30;;
179;SDS011;78;48.788;9.010;2024-01-11T14:48:35;128.33;;;44.90;;
179;SDS011;78;48.788;9.010;2024-01-11T14:51:01;120.43;;;45.03;;
179;SDS011;78;48.788;9.010;2024-01-11T14:53:27;130.47;;;46.27;;
179;SDS011;78;48.788;9.010;2024-01-11T14:55:53;117.73;;;45.03;;
179;SDS011;78;48.788;9.010;2024-01-11T14:58:19;136.10;;;45.50;;
179;SDS011;78;48.788;9.010;2024-01-11T15:00:45;124.00;;;44.70;;
179;SDS011;78;48.788;9.010;2024-01-11T15:03:11;136.30;;;46.87;;
179;SDS011;78;48.788;9.010;2024-01-11T15:05:37;120.13;;;44.40;;
179;SDS011;78;48.788;9.010;2024-01-11T15:08:03;137.23;;;46.00;;
179;SDS011;78;48.788;9.010;2024-01-11T15:10:30;129.30;;;45.10;;
179;SDS011;78;48.788;9.010;2024-01-11T15:12:56;122.53;;;45.00;;
179;SDS011;78;48.788;9.010;2024-01-11T15:15:22;122.83;;;44.90;;
179;SDS011;78;48.788;9.010;2024-01-11T15:17:49;123.00;;;44.27;;
179;SDS011;78;48.788;9.010;2024-01-11T15:20:15;127.53;;;45.10;;
179;SDS011;78;48.788;9.010;2024-01-11T15:22:41;127.63;;;44.27;;
179;SDS011;78;48.788;9.010;2024-01-11T15:25:08;116.67;;;43.57;;